General Aviation Weather

Text Reports

Enter one or more of the following location identifiers separated by a space:

Zip Code, Four-Character ICAO or Three-Character IATA airport codes.

METAR - Aviation Routine Weather Report
KNQA - Millington, Tennessee
Updated at 5:50 PM GMT on July 28, 2015 (12:50 PM CDT):
METAR KNQA 281750Z 19005KT 10SM SCT040 36/27 A3000
TAF - Terminal Area Forecast
KNQA - Millington, Tennessee
Updated at 5:50 PM GMT on July 28, 2015 (12:50 PM CDT):
No TAF is currently available for this location.
Decoded:
No decoded TAF is available.
PIREP - Pilot Weather Report
KNQA - Millington, Tennessee
Updated at 5:50 PM GMT on July 28, 2015 (12:50 PM CDT):
No PIREP is currently available for this location.
AIRMET - Airmens Meteorological Information
KNQA - Millington, Tennessee
Updated at 5:50 PM GMT on July 28, 2015 (12:50 PM CDT):
No AIRMET is currently available for this location.
SIGMET - Significant Meteorological Information
KNQA - Millington, Tennessee
Updated at 5:50 PM GMT on July 28, 2015 (12:50 PM CDT):
No SIGMET is currently available for this location.
NOTAM - Notice to Airmen
KNQA - Millington, Tennessee
Updated at 5:50 PM GMT on July 28, 2015 (12:50 PM CDT):
No NOTAM is currently available for this location.
Forecast Area
KNQA - Millington, Tennessee
Updated at 5:50 PM GMT on July 28, 2015 (12:50 PM CDT):
No NOTAM is currently available for this location.
Aviation Weather Maps